sensor_id;sensor_type;location;lat;lon;timestamp;P1;durP1;ratioP1;P2;durP2;ratioP2
69730;SDS011;56996;48.138;11.538;2023-04-30T00:02:08;8.60;;;2.40;;
69730;SDS011;56996;48.138;11.538;2023-04-30T00:04:34;7.60;;;3.20;;
69730;SDS011;56996;48.138;11.538;2023-04-30T00:07:02;6.60;;;2.50;;
69730;SDS011;56996;48.138;11.538;2023-04-30T00:09:29;7.60;;;3.10;;
69730;SDS011;56996;48.138;11.538;2023-04-30T00:11:56;6.70;;;2.50;;
69730;SDS011;56996;48.138;11.538;2023-04-30T00:14:22;7.50;;;3.00;;
69730;SDS011;56996;48.138;11.538;2023-04-30T00:16:49;8.20;;;3.40;;
69730;SDS011;56996;48.138;11.538;2023-04-30T00:19:16;8.90;;;3.10;;
69730;SDS011;56996;48.138;11.538;2023-04-30T00:21:43;7.10;;;2.90;;
69730;SDS011;56996;48.138;11.538;2023-04-30T00:24:09;6.70;;;2.60;;
69730;SDS011;56996;48.138;11.538;2023-04-30T00:26:36;7.70;;;3.20;;
69730;SDS011;56996;48.138;11.538;2023-04-30T00:29:02;8.80;;;3.50;;
69730;SDS011;56996;48.138;11.538;2023-04-30T00:31:29;7.50;;;3.30;;
69730;SDS011;56996;48.138;11.538;2023-04-30T00:33:56;7.90;;;3.30;;
69730;SDS011;56996;48.138;11.538;2023-04-30T00:36:23;7.10;;;2.60;;
69730;SDS011;56996;48.138;11.538;2023-04-30T00:38:50;7.40;;;3.10;;
69730;SDS011;56996;48.138;11.538;2023-04-30T00:41:17;7.40;;;3.20;;
69730;SDS011;56996;48.138;11.538;2023-04-30T00:43:44;8.00;;;3.20;;
69730;SDS011;56996;48.138;11.538;2023-04-30T00:46:13;7.50;;;3.30;;
69730;SDS011;56996;48.138;11.538;2023-04-30T00:48:40;8.00;;;3.40;;
69730;SDS011;56996;48.138;11.538;2023-04-30T00:51:07;8.10;;;3.40;;
69730;SDS011;56996;48.138;11.538;2023-04-30T00:53:33;7.40;;;3.00;;
69730;SDS011;56996;48.138;11.538;2023-04-30T00:56:01;8.50;;;3.40;;
69730;SDS011;56996;48.138;11.538;2023-04-30T00:58:28;8.00;;;3.30;;
69730;SDS011;56996;48.138;11.538;2023-04-30T01:00:55;8.20;;;3.30;;
69730;SDS011;56996;48.138;11.538;2023-04-30T01:03:22;8.70;;;3.50;;
69730;SDS011;56996;48.138;11.538;2023-04-30T01:05:49;7.40;;;3.10;;
69730;SDS011;56996;48.138;11.538;2023-04-30T01:08:16;9.40;;;3.40;;
69730;SDS011;56996;48.138;11.538;2023-04-30T01:10:50;8.20;;;3.40;;
69730;SDS011;56996;48.138;11.538;2023-04-30T01:13:33;8.50;;;3.60;;
69730;SDS011;56996;48.138;11.538;2023-04-30T01:16:14;7.50;;;2.90;;
69730;SDS011;56996;48.138;11.538;2023-04-30T01:18:51;7.50;;;3.20;;
69730;SDS011;56996;48.138;11.538;2023-04-30T01:21:24;8.00;;;3.30;;
69730;SDS011;56996;48.138;11.538;2023-04-30T01:30:02;7.90;;;3.40;;
69730;SDS011;56996;48.138;11.538;2023-04-30T01:32:31;7.90;;;3.10;;
69730;SDS011;56996;48.138;11.538;2023-04-30T01:34:57;10.40;;;4.20;;
69730;SDS011;56996;48.138;11.538;2023-04-30T01:40:43;8.50;;;3.50;;
69730;SDS011;56996;48.138;11.538;2023-04-30T01:46:12;8.30;;;3.30;;
69730;SDS011;56996;48.138;11.538;2023-04-30T01:52:13;8.50;;;3.00;;
69730;SDS011;56996;48.138;11.538;2023-04-30T01:55:33;9.10;;;3.80;;
69730;SDS011;56996;48.138;11.538;2023-04-30T01:58:06;9.20;;;3.60;;
69730;SDS011;56996;48.138;11.538;2023-04-30T02:00:36;8.90;;;3.90;;
69730;SDS011;56996;48.138;11.538;2023-04-30T02:03:03;7.90;;;3.70;;
69730;SDS011;56996;48.138;11.538;2023-04-30T02:05:29;8.50;;;3.70;;
69730;SDS011;56996;48.138;11.538;2023-04-30T02:07:56;9.50;;;4.10;;
69730;SDS011;56996;48.138;11.538;2023-04-30T02:10:24;8.40;;;3.30;;
69730;SDS011;56996;48.138;11.538;2023-04-30T02:12:52;9.10;;;3.70;;
69730;SDS011;56996;48.138;11.538;2023-04-30T02:15:19;8.60;;;3.20;;
69730;SDS011;56996;48.138;11.538;2023-04-30T02:17:46;7.70;;;3.50;;
69730;SDS011;56996;48.138;11.538;2023-04-30T02:20:13;9.00;;;4.10;;
69730;SDS011;56996;48.138;11.538;2023-04-30T02:22:41;9.60;;;4.30;;
69730;SDS011;56996;48.138;11.538;2023-04-30T02:25:08;8.30;;;3.50;;
69730;SDS011;56996;48.138;11.538;2023-04-30T02:27:37;9.60;;;3.80;;
69730;SDS011;56996;48.138;11.538;2023-04-30T02:30:04;10.00;;;3.90;;
69730;SDS011;56996;48.138;11.538;2023-04-30T02:32:31;10.10;;;4.40;;
69730;SDS011;56996;48.138;11.538;2023-04-30T02:34:58;8.70;;;3.90;;
69730;SDS011;56996;48.138;11.538;2023-04-30T02:37:25;10.10;;;4.00;;
69730;SDS011;56996;48.138;11.538;2023-04-30T02:39:52;9.20;;;4.00;;
69730;SDS011;56996;48.138;11.538;2023-04-30T02:42:20;9.70;;;4.00;;
69730;SDS011;56996;48.138;11.538;2023-04-30T02:44:46;9.60;;;4.50;;
69730;SDS011;56996;48.138;11.538;2023-04-30T02:47:13;9.20;;;4.10;;
69730;SDS011;56996;48.138;11.538;2023-04-30T02:49:40;9.40;;;3.90;;
69730;SDS011;56996;48.138;11.538;2023-04-30T02:52:07;9.50;;;3.80;;
69730;SDS011;56996;48.138;11.538;2023-04-30T02:54:36;10.10;;;4.30;;
69730;SDS011;56996;48.138;11.538;2023-04-30T02:57:02;9.50;;;4.20;;
69730;SDS011;56996;48.138;11.538;2023-04-30T02:59:29;9.40;;;3.90;;
69730;SDS011;56996;48.138;11.538;2023-04-30T03:01:56;10.50;;;4.80;;
69730;SDS011;56996;48.138;11.538;2023-04-30T03:04:23;9.50;;;4.10;;
69730;SDS011;56996;48.138;11.538;2023-04-30T03:06:50;9.70;;;4.50;;
69730;SDS011;56996;48.138;11.538;2023-04-30T03:09:16;9.90;;;4.40;;
69730;SDS011;56996;48.138;11.538;2023-04-30T03:11:43;9.60;;;4.20;;
69730;SDS011;56996;48.138;11.538;2023-04-30T03:14:10;8.50;;;3.50;;
69730;SDS011;56996;48.138;11.538;2023-04-30T03:16:36;8.10;;;3.50;;
69730;SDS011;56996;48.138;11.538;2023-04-30T03:19:03;8.20;;;3.60;;
69730;SDS011;56996;48.138;11.538;2023-04-30T03:21:30;9.50;;;4.50;;
69730;SDS011;56996;48.138;11.538;2023-04-30T03:23:56;9.10;;;3.90;;
69730;SDS011;56996;48.138;11.538;2023-04-30T03:26:23;10.10;;;4.80;;
69730;SDS011;56996;48.138;11.538;2023-04-30T03:28:50;9.70;;;4.40;;
69730;SDS011;56996;48.138;11.538;2023-04-30T03:31:17;9.10;;;4.20;;
69730;SDS011;56996;48.138;11.538;2023-04-30T03:33:43;9.70;;;4.30;;
69730;SDS011;56996;48.138;11.538;2023-04-30T03:36:10;8.50;;;4.00;;
69730;SDS011;56996;48.138;11.538;2023-04-30T03:38:38;10.80;;;4.40;;
69730;SDS011;56996;48.138;11.538;2023-04-30T03:41:04;9.60;;;4.60;;
69730;SDS011;56996;48.138;11.538;2023-04-30T03:43:32;9.40;;;3.40;;
69730;SDS011;56996;48.138;11.538;2023-04-30T03:45:58;9.90;;;4.60;;
69730;SDS011;56996;48.138;11.538;2023-04-30T03:48:26;9.60;;;4.70;;
69730;SDS011;56996;48.138;11.538;2023-04-30T03:50:53;10.80;;;4.80;;
69730;SDS011;56996;48.138;11.538;2023-04-30T03:53:20;9.00;;;4.20;;
69730;SDS011;56996;48.138;11.538;2023-04-30T03:55:48;9.00;;;3.90;;
69730;SDS011;56996;48.138;11.538;2023-04-30T03:58:16;9.80;;;4.70;;
69730;SDS011;56996;48.138;11.538;2023-04-30T04:00:43;11.00;;;4.60;;
69730;SDS011;56996;48.138;11.538;2023-04-30T04:03:11;10.10;;;4.80;;
69730;SDS011;56996;48.138;11.538;2023-04-30T04:05:38;9.20;;;4.10;;
69730;SDS011;56996;48.138;11.538;2023-04-30T04:08:06;10.00;;;4.80;;
69730;SDS011;56996;48.138;11.538;2023-04-30T04:10:33;10.40;;;4.70;;
69730;SDS011;56996;48.138;11.538;2023-04-30T04:13:00;9.50;;;4.10;;
69730;SDS011;56996;48.138;11.538;2023-04-30T04:15:27;10.10;;;4.60;;
69730;SDS011;56996;48.138;11.538;2023-04-30T04:17:53;8.90;;;3.50;;
69730;SDS011;56996;48.138;11.538;2023-04-30T04:20:20;10.20;;;4.00;;
69730;SDS011;56996;48.138;11.538;2023-04-30T04:22:48;10.30;;;4.70;;
69730;SDS011;56996;48.138;11.538;2023-04-30T04:25:15;10.70;;;4.60;;
69730;SDS011;56996;48.138;11.538;2023-04-30T04:27:43;10.60;;;5.10;;
69730;SDS011;56996;48.138;11.538;2023-04-30T04:30:10;9.70;;;4.60;;
69730;SDS011;56996;48.138;11.538;2023-04-30T04:32:37;10.20;;;5.10;;
69730;SDS011;56996;48.138;11.538;2023-04-30T04:35:13;9.80;;;4.20;;
69730;SDS011;56996;48.138;11.538;2023-04-30T04:37:40;8.90;;;4.10;;
69730;SDS011;56996;48.138;11.538;2023-04-30T04:40:07;9.80;;;4.60;;
69730;SDS011;56996;48.138;11.538;2023-04-30T04:42:36;9.80;;;4.70;;
69730;SDS011;56996;48.138;11.538;2023-04-30T04:45:05;10.60;;;4.80;;
69730;SDS011;56996;48.138;11.538;2023-04-30T04:47:33;9.70;;;4.60;;
69730;SDS011;56996;48.138;11.538;2023-04-30T04:50:00;8.70;;;3.60;;
69730;SDS011;56996;48.138;11.538;2023-04-30T04:52:26;9.90;;;4.60;;
69730;SDS011;56996;48.138;11.538;2023-04-30T04:54:53;10.20;;;4.70;;
69730;SDS011;56996;48.138;11.538;2023-04-30T04:57:20;10.70;;;5.10;;
69730;SDS011;56996;48.138;11.538;2023-04-30T04:59:46;9.80;;;4.60;;
69730;SDS011;56996;48.138;11.538;2023-04-30T05:02:13;9.80;;;4.60;;
69730;SDS011;56996;48.138;11.538;2023-04-30T05:04:40;10.90;;;5.30;;
69730;SDS011;56996;48.138;11.538;2023-04-30T05:07:07;10.10;;;4.40;;
69730;SDS011;56996;48.138;11.538;2023-04-30T05:09:34;12.10;;;5.30;;
69730;SDS011;56996;48.138;11.538;2023-04-30T05:12:00;9.90;;;4.90;;
69730;SDS011;56996;48.138;11.538;2023-04-30T05:14:27;10.20;;;5.00;;
69730;SDS011;56996;48.138;11.538;2023-04-30T05:16:54;10.10;;;5.10;;
69730;SDS011;56996;48.138;11.538;2023-04-30T05:19:21;10.00;;;4.80;;
69730;SDS011;56996;48.138;11.538;2023-04-30T05:21:47;11.00;;;4.90;;
69730;SDS011;56996;48.138;11.538;2023-04-30T05:24:14;11.80;;;5.30;;
69730;SDS011;56996;48.138;11.538;2023-04-30T05:26:41;10.20;;;5.20;;
69730;SDS011;56996;48.138;11.538;2023-04-30T05:29:07;10.10;;;5.20;;
69730;SDS011;56996;48.138;11.538;2023-04-30T05:31:35;10.50;;;5.50;;
69730;SDS011;56996;48.138;11.538;2023-04-30T05:34:02;10.60;;;5.00;;
69730;SDS011;56996;48.138;11.538;2023-04-30T05:36:28;9.60;;;4.90;;
69730;SDS011;56996;48.138;11.538;2023-04-30T05:38:55;10.40;;;4.60;;
69730;SDS011;56996;48.138;11.538;2023-04-30T05:41:22;10.20;;;5.00;;
69730;SDS011;56996;48.138;11.538;2023-04-30T05:43:48;10.00;;;4.60;;
69730;SDS011;56996;48.138;11.538;2023-04-30T05:46:15;9.90;;;5.00;;
69730;SDS011;56996;48.138;11.538;2023-04-30T05:48:42;10.40;;;4.60;;
69730;SDS011;56996;48.138;11.538;2023-04-30T05:51:08;9.90;;;4.60;;
69730;SDS011;56996;48.138;11.538;2023-04-30T05:53:36;11.40;;;5.50;;
69730;SDS011;56996;48.138;11.538;2023-04-30T05:56:02;10.50;;;5.20;;
69730;SDS011;56996;48.138;11.538;2023-04-30T05:58:29;10.70;;;5.20;;
69730;SDS011;56996;48.138;11.538;2023-04-30T06:00:55;9.40;;;4.50;;
69730;SDS011;56996;48.138;11.538;2023-04-30T06:03:22;10.90;;;4.50;;
69730;SDS011;56996;48.138;11.538;2023-04-30T06:05:49;10.60;;;4.70;;
69730;SDS011;56996;48.138;11.538;2023-04-30T06:08:15;10.50;;;5.20;;
69730;SDS011;56996;48.138;11.538;2023-04-30T06:10:42;9.60;;;4.90;;
69730;SDS011;56996;48.138;11.538;2023-04-30T06:13:09;11.20;;;5.60;;
69730;SDS011;56996;48.138;11.538;2023-04-30T06:15:36;10.00;;;4.70;;
69730;SDS011;56996;48.138;11.538;2023-04-30T06:18:03;10.80;;;5.30;;
69730;SDS011;56996;48.138;11.538;2023-04-30T06:20:30;10.30;;;5.40;;
69730;SDS011;56996;48.138;11.538;2023-04-30T06:22:56;11.00;;;4.80;;
69730;SDS011;56996;48.138;11.538;2023-04-30T06:25:23;9.60;;;4.90;;
69730;SDS011;56996;48.138;11.538;2023-04-30T06:27:49;10.80;;;5.50;;
69730;SDS011;56996;48.138;11.538;2023-04-30T06:30:19;9.90;;;4.50;;
69730;SDS011;56996;48.138;11.538;2023-04-30T06:32:46;9.10;;;4.70;;
69730;SDS011;56996;48.138;11.538;2023-04-30T06:35:13;7.80;;;3.70;;
69730;SDS011;56996;48.138;11.538;2023-04-30T06:37:40;9.50;;;4.60;;
69730;SDS011;56996;48.138;11.538;2023-04-30T06:40:07;7.90;;;3.80;;
69730;SDS011;56996;48.138;11.538;2023-04-30T06:42:34;7.70;;;4.30;;
69730;SDS011;56996;48.138;11.538;2023-04-30T06:45:02;9.00;;;4.60;;
69730;SDS011;56996;48.138;11.538;2023-04-30T06:47:30;7.80;;;4.20;;
69730;SDS011;56996;48.138;11.538;2023-04-30T06:50:00;7.60;;;4.40;;
69730;SDS011;56996;48.138;11.538;2023-04-30T06:52:28;8.10;;;3.90;;
69730;SDS011;56996;48.138;11.538;2023-04-30T06:54:55;7.30;;;4.50;;
69730;SDS011;56996;48.138;11.538;2023-04-30T06:57:22;6.90;;;4.20;;
69730;SDS011;56996;48.138;11.538;2023-04-30T06:59:50;8.20;;;4.80;;
69730;SDS011;56996;48.138;11.538;2023-04-30T07:02:17;6.60;;;3.60;;
69730;SDS011;56996;48.138;11.538;2023-04-30T07:04:47;6.70;;;4.10;;
69730;SDS011;56996;48.138;11.538;2023-04-30T07:07:15;6.20;;;3.90;;
69730;SDS011;56996;48.138;11.538;2023-04-30T07:09:41;6.50;;;4.10;;
69730;SDS011;56996;48.138;11.538;2023-04-30T07:12:08;7.10;;;4.40;;
69730;SDS011;56996;48.138;11.538;2023-04-30T07:14:37;7.50;;;4.80;;
69730;SDS011;56996;48.138;11.538;2023-04-30T07:17:04;7.20;;;4.40;;
69730;SDS011;56996;48.138;11.538;2023-04-30T07:19:31;7.00;;;4.10;;
69730;SDS011;56996;48.138;11.538;2023-04-30T07:21:58;6.90;;;4.40;;
69730;SDS011;56996;48.138;11.538;2023-04-30T07:24:24;7.20;;;4.20;;
69730;SDS011;56996;48.138;11.538;2023-04-30T07:26:51;8.20;;;4.80;;
69730;SDS011;56996;48.138;11.538;2023-04-30T07:29:18;9.20;;;4.60;;
69730;SDS011;56996;48.138;11.538;2023-04-30T07:31:44;7.40;;;4.40;;
69730;SDS011;56996;48.138;11.538;2023-04-30T07:34:11;7.20;;;4.10;;
69730;SDS011;56996;48.138;11.538;2023-04-30T07:36:38;7.00;;;3.90;;
69730;SDS011;56996;48.138;11.538;2023-04-30T07:39:05;8.00;;;4.50;;
69730;SDS011;56996;48.138;11.538;2023-04-30T07:41:33;7.00;;;3.80;;
69730;SDS011;56996;48.138;11.538;2023-04-30T07:44:00;8.10;;;4.50;;
69730;SDS011;56996;48.138;11.538;2023-04-30T07:46:27;8.50;;;5.00;;
69730;SDS011;56996;48.138;11.538;2023-04-30T07:48:53;7.90;;;4.80;;
69730;SDS011;56996;48.138;11.538;2023-04-30T07:51:20;7.20;;;3.80;;
69730;SDS011;56996;48.138;11.538;2023-04-30T07:53:47;7.50;;;3.80;;
69730;SDS011;56996;48.138;11.538;2023-04-30T07:56:13;6.80;;;3.70;;
69730;SDS011;56996;48.138;11.538;2023-04-30T07:58:40;7.20;;;3.60;;
69730;SDS011;56996;48.138;11.538;2023-04-30T08:01:07;8.00;;;4.80;;
69730;SDS011;56996;48.138;11.538;2023-04-30T08:03:33;7.50;;;3.70;;
69730;SDS011;56996;48.138;11.538;2023-04-30T08:06:00;7.80;;;4.90;;
69730;SDS011;56996;48.138;11.538;2023-04-30T08:08:27;6.90;;;4.00;;
69730;SDS011;56996;48.138;11.538;2023-04-30T08:10:54;7.80;;;4.40;;
69730;SDS011;56996;48.138;11.538;2023-04-30T08:13:20;7.10;;;4.30;;
69730;SDS011;56996;48.138;11.538;2023-04-30T08:15:47;7.30;;;4.30;;
69730;SDS011;56996;48.138;11.538;2023-04-30T08:18:14;7.00;;;4.20;;
69730;SDS011;56996;48.138;11.538;2023-04-30T08:20:40;7.10;;;4.50;;
69730;SDS011;56996;48.138;11.538;2023-04-30T08:23:07;8.00;;;4.90;;
69730;SDS011;56996;48.138;11.538;2023-04-30T08:25:34;7.70;;;4.60;;
69730;SDS011;56996;48.138;11.538;2023-04-30T08:28:00;7.40;;;4.10;;
69730;SDS011;56996;48.138;11.538;2023-04-30T08:30:27;6.30;;;3.80;;
69730;SDS011;56996;48.138;11.538;2023-04-30T08:32:54;8.90;;;4.40;;
69730;SDS011;56996;48.138;11.538;2023-04-30T08:35:23;7.00;;;4.50;;
69730;SDS011;56996;48.138;11.538;2023-04-30T08:37:50;7.00;;;4.00;;
69730;SDS011;56996;48.138;11.538;2023-04-30T08:40:16;7.90;;;5.00;;
69730;SDS011;56996;48.138;11.538;2023-04-30T08:42:54;7.00;;;4.40;;
69730;SDS011;56996;48.138;11.538;2023-04-30T08:45:28;6.80;;;4.20;;
69730;SDS011;56996;48.138;11.538;2023-04-30T08:47:55;6.80;;;4.80;;
69730;SDS011;56996;48.138;11.538;2023-04-30T08:50:25;6.90;;;4.20;;
69730;SDS011;56996;48.138;11.538;2023-04-30T08:52:53;6.00;;;3.70;;
69730;SDS011;56996;48.138;11.538;2023-04-30T08:55:20;6.80;;;4.00;;
69730;SDS011;56996;48.138;11.538;2023-04-30T08:57:46;7.00;;;4.10;;
69730;SDS011;56996;48.138;11.538;2023-04-30T09:00:13;6.40;;;4.10;;
69730;SDS011;56996;48.138;11.538;2023-04-30T09:02:40;6.60;;;3.80;;
69730;SDS011;56996;48.138;11.538;2023-04-30T09:05:13;6.90;;;4.10;;
69730;SDS011;56996;48.138;11.538;2023-04-30T09:07:44;6.30;;;3.50;;
69730;SDS011;56996;48.138;11.538;2023-04-30T09:10:20;6.60;;;3.80;;
69730;SDS011;56996;48.138;11.538;2023-04-30T09:12:58;6.70;;;3.80;;
69730;SDS011;56996;48.138;11.538;2023-04-30T09:15:27;6.30;;;2.80;;
69730;SDS011;56996;48.138;11.538;2023-04-30T09:18:06;7.30;;;3.90;;
69730;SDS011;56996;48.138;11.538;2023-04-30T09:20:34;7.40;;;4.10;;
69730;SDS011;56996;48.138;11.538;2023-04-30T09:23:10;6.80;;;3.60;;
69730;SDS011;56996;48.138;11.538;2023-04-30T09:25:41;7.00;;;3.50;;
69730;SDS011;56996;48.138;11.538;2023-04-30T09:28:10;7.30;;;3.60;;
69730;SDS011;56996;48.138;11.538;2023-04-30T09:30:41;6.40;;;3.00;;
69730;SDS011;56996;48.138;11.538;2023-04-30T09:33:08;6.90;;;3.20;;
69730;SDS011;56996;48.138;11.538;2023-04-30T09:35:38;6.70;;;3.50;;
69730;SDS011;56996;48.138;11.538;2023-04-30T09:38:31;7.20;;;3.20;;
69730;SDS011;56996;48.138;11.538;2023-04-30T09:40:59;7.20;;;3.60;;
69730;SDS011;56996;48.138;11.538;2023-04-30T09:43:28;7.20;;;3.00;;
69730;SDS011;56996;48.138;11.538;2023-04-30T09:45:59;6.30;;;3.30;;
69730;SDS011;56996;48.138;11.538;2023-04-30T09:48:26;7.10;;;3.20;;
69730;SDS011;56996;48.138;11.538;2023-04-30T09:50:56;7.10;;;3.50;;
69730;SDS011;56996;48.138;11.538;2023-04-30T09:53:23;7.10;;;3.90;;
69730;SDS011;56996;48.138;11.538;2023-04-30T09:55:50;7.10;;;4.10;;
69730;SDS011;56996;48.138;11.538;2023-04-30T09:58:18;6.50;;;3.40;;
69730;SDS011;56996;48.138;11.538;2023-04-30T10:00:46;7.10;;;4.20;;
69730;SDS011;56996;48.138;11.538;2023-04-30T10:03:15;6.70;;;3.50;;
69730;SDS011;56996;48.138;11.538;2023-04-30T10:05:44;6.70;;;4.10;;
69730;SDS011;56996;48.138;11.538;2023-04-30T10:08:30;7.90;;;4.10;;
69730;SDS011;56996;48.138;11.538;2023-04-30T10:11:05;7.40;;;3.90;;
69730;SDS011;56996;48.138;11.538;2023-04-30T10:13:41;7.20;;;4.00;;
69730;SDS011;56996;48.138;11.538;2023-04-30T10:16:18;9.10;;;5.10;;
69730;SDS011;56996;48.138;11.538;2023-04-30T10:18:57;8.00;;;4.30;;
69730;SDS011;56996;48.138;11.538;2023-04-30T10:21:26;6.90;;;3.50;;
69730;SDS011;56996;48.138;11.538;2023-04-30T10:23:55;7.10;;;3.70;;
69730;SDS011;56996;48.138;11.538;2023-04-30T10:26:22;7.60;;;4.20;;
69730;SDS011;56996;48.138;11.538;2023-04-30T10:28:50;8.00;;;4.20;;
69730;SDS011;56996;48.138;11.538;2023-04-30T10:31:20;7.20;;;4.00;;
69730;SDS011;56996;48.138;11.538;2023-04-30T10:40:06;7.50;;;4.00;;
69730;SDS011;56996;48.138;11.538;2023-04-30T10:42:35;6.90;;;3.70;;
69730;SDS011;56996;48.138;11.538;2023-04-30T10:45:02;6.70;;;3.60;;
69730;SDS011;56996;48.138;11.538;2023-04-30T10:47:29;6.90;;;4.30;;
69730;SDS011;56996;48.138;11.538;2023-04-30T10:50:04;6.30;;;2.90;;
69730;SDS011;56996;48.138;11.538;2023-04-30T10:52:33;7.20;;;3.80;;
69730;SDS011;56996;48.138;11.538;2023-04-30T10:55:07;6.70;;;3.50;;
69730;SDS011;56996;48.138;11.538;2023-04-30T10:57:41;8.00;;;3.30;;
69730;SDS011;56996;48.138;11.538;2023-04-30T11:02:40;7.20;;;3.30;;
69730;SDS011;56996;48.138;11.538;2023-04-30T11:07:56;7.00;;;3.60;;
69730;SDS011;56996;48.138;11.538;2023-04-30T11:10:26;6.20;;;3.10;;
69730;SDS011;56996;48.138;11.538;2023-04-30T11:12:55;6.30;;;3.10;;
69730;SDS011;56996;48.138;11.538;2023-04-30T11:15:29;7.10;;;3.40;;
69730;SDS011;56996;48.138;11.538;2023-04-30T11:17:59;6.00;;;3.00;;
69730;SDS011;56996;48.138;11.538;2023-04-30T11:20:26;5.00;;;2.20;;
69730;SDS011;56996;48.138;11.538;2023-04-30T11:23:10;7.20;;;3.00;;
69730;SDS011;56996;48.138;11.538;2023-04-30T11:25:53;6.40;;;3.40;;
69730;SDS011;56996;48.138;11.538;2023-04-30T11:28:24;5.90;;;2.70;;
69730;SDS011;56996;48.138;11.538;2023-04-30T11:30:56;6.50;;;2.80;;
69730;SDS011;56996;48.138;11.538;2023-04-30T11:33:26;6.10;;;2.70;;
69730;SDS011;56996;48.138;11.538;2023-04-30T11:35:55;6.30;;;3.30;;
69730;SDS011;56996;48.138;11.538;2023-04-30T11:38:26;5.90;;;2.70;;
69730;SDS011;56996;48.138;11.538;2023-04-30T11:40:59;5.70;;;2.50;;
69730;SDS011;56996;48.138;11.538;2023-04-30T11:43:29;5.80;;;2.70;;
69730;SDS011;56996;48.138;11.538;2023-04-30T11:46:08;6.90;;;3.00;;
69730;SDS011;56996;48.138;11.538;2023-04-30T11:48:42;7.20;;;2.90;;
69730;SDS011;56996;48.138;11.538;2023-04-30T11:51:22;6.30;;;3.30;;
69730;SDS011;56996;48.138;11.538;2023-04-30T11:53:52;6.40;;;3.00;;
69730;SDS011;56996;48.138;11.538;2023-04-30T11:56:23;5.80;;;2.80;;
69730;SDS011;56996;48.138;11.538;2023-04-30T11:58:51;7.20;;;2.60;;
69730;SDS011;56996;48.138;11.538;2023-04-30T12:01:19;5.80;;;2.50;;
69730;SDS011;56996;48.138;11.538;2023-04-30T12:03:48;6.10;;;2.50;;
69730;SDS011;56996;48.138;11.538;2023-04-30T12:06:24;5.80;;;2.50;;
69730;SDS011;56996;48.138;11.538;2023-04-30T12:08:59;6.50;;;2.80;;
69730;SDS011;56996;48.138;11.538;2023-04-30T12:11:30;6.00;;;2.80;;
69730;SDS011;56996;48.138;11.538;2023-04-30T12:14:00;7.00;;;2.70;;
69730;SDS011;56996;48.138;11.538;2023-04-30T12:16:47;6.30;;;2.90;;
69730;SDS011;56996;48.138;11.538;2023-04-30T12:19:20;5.50;;;2.70;;
69730;SDS011;56996;48.138;11.538;2023-04-30T12:21:50;6.40;;;2.90;;
69730;SDS011;56996;48.138;11.538;2023-04-30T12:24:20;6.40;;;3.20;;
69730;SDS011;56996;48.138;11.538;2023-04-30T12:26:46;6.00;;;2.80;;
69730;SDS011;56996;48.138;11.538;2023-04-30T12:29:15;5.50;;;2.30;;
69730;SDS011;56996;48.138;11.538;2023-04-30T12:31:43;6.00;;;2.50;;
69730;SDS011;56996;48.138;11.538;2023-04-30T12:34:12;7.10;;;3.70;;
69730;SDS011;56996;48.138;11.538;2023-04-30T12:36:40;5.80;;;2.60;;
69730;SDS011;56996;48.138;11.538;2023-04-30T12:39:14;7.20;;;3.00;;
69730;SDS011;56996;48.138;11.538;2023-04-30T12:41:46;6.00;;;2.80;;
69730;SDS011;56996;48.138;11.538;2023-04-30T12:44:17;5.70;;;1.90;;
69730;SDS011;56996;48.138;11.538;2023-04-30T12:46:52;7.20;;;2.50;;
69730;SDS011;56996;48.138;11.538;2023-04-30T12:49:29;6.10;;;2.70;;
69730;SDS011;56996;48.138;11.538;2023-04-30T12:52:01;6.00;;;2.70;;
69730;SDS011;56996;48.138;11.538;2023-04-30T12:54:31;6.40;;;2.50;;
69730;SDS011;56996;48.138;11.538;2023-04-30T12:57:09;5.70;;;2.60;;
69730;SDS011;56996;48.138;11.538;2023-04-30T12:59:58;7.60;;;4.00;;
69730;SDS011;56996;48.138;11.538;2023-04-30T13:02:27;6.70;;;2.60;;
69730;SDS011;56996;48.138;11.538;2023-04-30T13:04:57;6.50;;;2.80;;
69730;SDS011;56996;48.138;11.538;2023-04-30T13:07:24;6.60;;;2.80;;
69730;SDS011;56996;48.138;11.538;2023-04-30T13:09:51;6.70;;;2.90;;
69730;SDS011;56996;48.138;11.538;2023-04-30T13:12:18;6.80;;;2.90;;
69730;SDS011;56996;48.138;11.538;2023-04-30T13:14:45;5.90;;;2.30;;
69730;SDS011;56996;48.138;11.538;2023-04-30T13:17:14;6.70;;;2.40;;
69730;SDS011;56996;48.138;11.538;2023-04-30T13:19:41;5.40;;;2.20;;
69730;SDS011;56996;48.138;11.538;2023-04-30T13:22:07;6.20;;;2.70;;
69730;SDS011;56996;48.138;11.538;2023-04-30T13:24:34;6.50;;;2.60;;
69730;SDS011;56996;48.138;11.538;2023-04-30T13:27:01;5.40;;;2.10;;
69730;SDS011;56996;48.138;11.538;2023-04-30T13:29:29;6.10;;;2.80;;
69730;SDS011;56996;48.138;11.538;2023-04-30T13:31:56;5.50;;;2.40;;
69730;SDS011;56996;48.138;11.538;2023-04-30T13:34:23;6.90;;;3.00;;
69730;SDS011;56996;48.138;11.538;2023-04-30T13:36:49;6.30;;;2.40;;
69730;SDS011;56996;48.138;11.538;2023-04-30T13:39:17;5.60;;;2.30;;
69730;SDS011;56996;48.138;11.538;2023-04-30T13:41:45;6.50;;;2.80;;
69730;SDS011;56996;48.138;11.538;2023-04-30T13:44:13;7.20;;;2.60;;
69730;SDS011;56996;48.138;11.538;2023-04-30T13:46:39;5.00;;;2.00;;
69730;SDS011;56996;48.138;11.538;2023-04-30T13:49:06;5.60;;;2.20;;
69730;SDS011;56996;48.138;11.538;2023-04-30T13:51:33;5.90;;;2.20;;
69730;SDS011;56996;48.138;11.538;2023-04-30T13:53:59;5.80;;;2.30;;
69730;SDS011;56996;48.138;11.538;2023-04-30T13:56:26;5.60;;;2.20;;
69730;SDS011;56996;48.138;11.538;2023-04-30T13:58:54;6.30;;;2.90;;
69730;SDS011;56996;48.138;11.538;2023-04-30T14:01:20;6.00;;;2.70;;
69730;SDS011;56996;48.138;11.538;2023-04-30T14:03:47;5.50;;;2.10;;
69730;SDS011;56996;48.138;11.538;2023-04-30T14:06:14;5.30;;;2.10;;
69730;SDS011;56996;48.138;11.538;2023-04-30T14:08:41;6.20;;;2.20;;
69730;SDS011;56996;48.138;11.538;2023-04-30T14:11:08;5.80;;;2.40;;
69730;SDS011;56996;48.138;11.538;2023-04-30T14:13:34;6.60;;;2.20;;
69730;SDS011;56996;48.138;11.538;2023-04-30T14:16:01;6.50;;;3.00;;
69730;SDS011;56996;48.138;11.538;2023-04-30T14:18:28;5.70;;;2.70;;
69730;SDS011;56996;48.138;11.538;2023-04-30T14:20:55;5.10;;;2.20;;
69730;SDS011;56996;48.138;11.538;2023-04-30T14:23:21;4.80;;;1.90;;
69730;SDS011;56996;48.138;11.538;2023-04-30T14:25:48;5.80;;;2.50;;
69730;SDS011;56996;48.138;11.538;2023-04-30T14:28:15;5.20;;;1.70;;
69730;SDS011;56996;48.138;11.538;2023-04-30T14:30:41;5.20;;;2.00;;
69730;SDS011;56996;48.138;11.538;2023-04-30T14:33:11;5.70;;;2.20;;
69730;SDS011;56996;48.138;11.538;2023-04-30T14:35:38;6.00;;;2.20;;
69730;SDS011;56996;48.138;11.538;2023-04-30T14:38:05;4.80;;;2.00;;
69730;SDS011;56996;48.138;11.538;2023-04-30T14:40:31;5.30;;;2.30;;
69730;SDS011;56996;48.138;11.538;2023-04-30T14:43:01;6.10;;;2.30;;
69730;SDS011;56996;48.138;11.538;2023-04-30T14:45:27;6.10;;;1.80;;
69730;SDS011;56996;48.138;11.538;2023-04-30T14:47:54;5.80;;;2.30;;
69730;SDS011;56996;48.138;11.538;2023-04-30T14:50:21;6.50;;;2.50;;
69730;SDS011;56996;48.138;11.538;2023-04-30T14:52:49;6.30;;;2.40;;
69730;SDS011;56996;48.138;11.538;2023-04-30T14:55:16;6.60;;;2.50;;
69730;SDS011;56996;48.138;11.538;2023-04-30T14:57:43;5.70;;;2.20;;
69730;SDS011;56996;48.138;11.538;2023-04-30T15:00:10;5.60;;;2.30;;
69730;SDS011;56996;48.138;11.538;2023-04-30T15:02:37;6.40;;;2.50;;
69730;SDS011;56996;48.138;11.538;2023-04-30T15:05:05;5.10;;;1.70;;
69730;SDS011;56996;48.138;11.538;2023-04-30T15:07:33;6.30;;;2.40;;
69730;SDS011;56996;48.138;11.538;2023-04-30T15:10:00;6.30;;;2.80;;